sensor_id;sensor_type;location;lat;lon;timestamp;temperature;humidity
49503;DHT22;35409;48.776;9.204;2024-03-07T00:00:08;6.00;99.90
49503;DHT22;35409;48.776;9.204;2024-03-07T00:02:44;6.00;99.90
49503;DHT22;35409;48.776;9.204;2024-03-07T00:05:10;5.90;99.90
49503;DHT22;35409;48.776;9.204;2024-03-07T00:07:37;5.80;99.90
49503;DHT22;35409;48.776;9.204;2024-03-07T00:10:03;5.80;99.90
49503;DHT22;35409;48.776;9.204;2024-03-07T00:12:30;5.80;99.90
49503;DHT22;35409;48.776;9.204;2024-03-07T00:14:56;5.80;99.90
49503;DHT22;35409;48.776;9.204;2024-03-07T00:17:21;5.80;99.90
49503;DHT22;35409;48.776;9.204;2024-03-07T00:19:48;5.80;99.90
49503;DHT22;35409;48.776;9.204;2024-03-07T00:22:14;5.70;99.90
49503;DHT22;35409;48.776;9.204;2024-03-07T00:24:40;5.70;99.90
49503;DHT22;35409;48.776;9.204;2024-03-07T00:27:05;5.70;99.90
49503;DHT22;35409;48.776;9.204;2024-03-07T00:29:32;5.80;99.90
49503;DHT22;35409;48.776;9.204;2024-03-07T00:32:01;5.70;99.90
49503;DHT22;35409;48.776;9.204;2024-03-07T00:34:26;5.80;99.90
49503;DHT22;35409;48.776;9.204;2024-03-07T00:36:53;5.80;99.90
49503;DHT22;35409;48.776;9.204;2024-03-07T00:39:19;5.80;99.90
49503;DHT22;35409;48.776;9.204;2024-03-07T00:41:45;5.70;99.90
49503;DHT22;35409;48.776;9.204;2024-03-07T00:44:11;5.60;99.90
49503;DHT22;35409;48.776;9.204;2024-03-07T00:46:37;5.50;99.90
49503;DHT22;35409;48.776;9.204;2024-03-07T00:49:03;5.50;99.90
49503;DHT22;35409;48.776;9.204;2024-03-07T00:51:29;5.40;99.90
49503;DHT22;35409;48.776;9.204;2024-03-07T00:53:55;5.30;99.90
49503;DHT22;35409;48.776;9.204;2024-03-07T00:56:21;5.30;99.90
49503;DHT22;35409;48.776;9.204;2024-03-07T00:58:50;5.30;99.90
49503;DHT22;35409;48.776;9.204;2024-03-07T01:01:17;5.20;99.90
49503;DHT22;35409;48.776;9.204;2024-03-07T01:03:44;5.20;99.90
49503;DHT22;35409;48.776;9.204;2024-03-07T01:06:09;5.20;99.90
49503;DHT22;35409;48.776;9.204;2024-03-07T01:08:36;5.20;99.90
49503;DHT22;35409;48.776;9.204;2024-03-07T01:11:02;5.20;99.90
49503;DHT22;35409;48.776;9.204;2024-03-07T01:13:35;5.20;99.90
49503;DHT22;35409;48.776;9.204;2024-03-07T01:16:01;5.20;99.90
49503;DHT22;35409;48.776;9.204;2024-03-07T01:18:26;5.10;99.90
49503;DHT22;35409;48.776;9.204;2024-03-07T01:20:52;5.10;99.90
49503;DHT22;35409;48.776;9.204;2024-03-07T01:23:18;5.10;99.90
49503;DHT22;35409;48.776;9.204;2024-03-07T01:25:44;5.00;99.90
49503;DHT22;35409;48.776;9.204;2024-03-07T01:28:09;5.00;99.90
49503;DHT22;35409;48.776;9.204;2024-03-07T01:30:38;4.90;99.90
49503;DHT22;35409;48.776;9.204;2024-03-07T01:33:03;4.90;99.90
49503;DHT22;35409;48.776;9.204;2024-03-07T01:35:29;4.90;99.90
49503;DHT22;35409;48.776;9.204;2024-03-07T01:37:54;4.80;99.90
49503;DHT22;35409;48.776;9.204;2024-03-07T01:40:20;4.90;99.90
49503;DHT22;35409;48.776;9.204;2024-03-07T01:42:50;4.90;99.90
49503;DHT22;35409;48.776;9.204;2024-03-07T01:45:18;4.90;99.90
49503;DHT22;35409;48.776;9.204;2024-03-07T01:47:44;4.80;99.90
49503;DHT22;35409;48.776;9.204;2024-03-07T01:50:11;4.70;99.90
49503;DHT22;35409;48.776;9.204;2024-03-07T01:52:40;4.70;99.90
49503;DHT22;35409;48.776;9.204;2024-03-07T01:55:07;4.70;99.90
49503;DHT22;35409;48.776;9.204;2024-03-07T01:57:33;4.70;99.90
49503;DHT22;35409;48.776;9.204;2024-03-07T02:00:00;4.60;99.90
49503;DHT22;35409;48.776;9.204;2024-03-07T02:02:29;4.60;99.90
49503;DHT22;35409;48.776;9.204;2024-03-07T02:04:55;4.50;99.90
49503;DHT22;35409;48.776;9.204;2024-03-07T02:07:21;4.50;99.90
49503;DHT22;35409;48.776;9.204;2024-03-07T02:09:46;4.40;99.90
49503;DHT22;35409;48.776;9.204;2024-03-07T02:34:12;3.50;99.90
49503;DHT22;35409;48.776;9.204;2024-03-07T05:22:47;0.60;99.90
49503;DHT22;35409;48.776;9.204;2024-03-07T05:25:16;0.50;99.90
49503;DHT22;35409;48.776;9.204;2024-03-07T05:27:42;0.40;99.90
49503;DHT22;35409;48.776;9.204;2024-03-07T05:30:08;0.40;99.90
49503;DHT22;35409;48.776;9.204;2024-03-07T05:32:37;0.30;99.90
49503;DHT22;35409;48.776;9.204;2024-03-07T05:35:03;0.30;99.90
49503;DHT22;35409;48.776;9.204;2024-03-07T05:37:29;0.20;99.90
49503;DHT22;35409;48.776;9.204;2024-03-07T05:39:54;0.10;99.90
49503;DHT22;35409;48.776;9.204;2024-03-07T05:42:20;0.10;99.90
49503;DHT22;35409;48.776;9.204;2024-03-07T05:44:46;0.00;99.90
49503;DHT22;35409;48.776;9.204;2024-03-07T05:47:13;0.00;99.90
49503;DHT22;35409;48.776;9.204;2024-03-07T05:49:39;0.00;99.90
49503;DHT22;35409;48.776;9.204;2024-03-07T05:52:05;0.00;99.90
49503;DHT22;35409;48.776;9.204;2024-03-07T05:54:33;-0.10;99.90
49503;DHT22;35409;48.776;9.204;2024-03-07T05:56:59;0.00;99.90
49503;DHT22;35409;48.776;9.204;2024-03-07T05:59:25;0.00;99.90
49503;DHT22;35409;48.776;9.204;2024-03-07T06:01:51;-0.10;99.90
49503;DHT22;35409;48.776;9.204;2024-03-07T06:04:17;-0.10;99.90
49503;DHT22;35409;48.776;9.204;2024-03-07T08:00:15;2.30;99.90
49503;DHT22;35409;48.776;9.204;2024-03-07T08:03:00;2.40;99.90
49503;DHT22;35409;48.776;9.204;2024-03-07T08:05:28;2.40;99.90
49503;DHT22;35409;48.776;9.204;2024-03-07T08:07:59;2.60;99.90
49503;DHT22;35409;48.776;9.204;2024-03-07T08:10:26;2.80;99.90
49503;DHT22;35409;48.776;9.204;2024-03-07T08:12:54;2.80;99.90
49503;DHT22;35409;48.776;9.204;2024-03-07T08:15:21;2.90;99.90
49503;DHT22;35409;48.776;9.204;2024-03-07T08:17:48;2.90;99.90
49503;DHT22;35409;48.776;9.204;2024-03-07T08:20:20;2.90;99.90
49503;DHT22;35409;48.776;9.204;2024-03-07T08:22:48;2.90;99.90
49503;DHT22;35409;48.776;9.204;2024-03-07T08:25:17;3.00;99.90
49503;DHT22;35409;48.776;9.204;2024-03-07T08:27:47;3.20;99.90
49503;DHT22;35409;48.776;9.204;2024-03-07T08:30:13;3.30;99.90
49503;DHT22;35409;48.776;9.204;2024-03-07T08:32:45;3.40;99.90
49503;DHT22;35409;48.776;9.204;2024-03-07T08:35:11;3.50;99.90
49503;DHT22;35409;48.776;9.204;2024-03-07T08:37:37;3.60;99.90
49503;DHT22;35409;48.776;9.204;2024-03-07T08:40:04;3.70;99.90
49503;DHT22;35409;48.776;9.204;2024-03-07T08:42:33;3.80;99.90
49503;DHT22;35409;48.776;9.204;2024-03-07T08:45:00;3.90;99.90
49503;DHT22;35409;48.776;9.204;2024-03-07T08:47:26;3.90;99.90
49503;DHT22;35409;48.776;9.204;2024-03-07T08:49:51;4.00;99.90
49503;DHT22;35409;48.776;9.204;2024-03-07T08:52:17;4.10;99.90
49503;DHT22;35409;48.776;9.204;2024-03-07T08:54:44;4.30;99.90
49503;DHT22;35409;48.776;9.204;2024-03-07T08:57:10;4.30;99.90
49503;DHT22;35409;48.776;9.204;2024-03-07T08:59:35;4.40;99.90
49503;DHT22;35409;48.776;9.204;2024-03-07T09:02:01;4.50;99.90
49503;DHT22;35409;48.776;9.204;2024-03-07T09:04:27;4.70;99.90
49503;DHT22;35409;48.776;9.204;2024-03-07T09:06:54;4.70;99.90
49503;DHT22;35409;48.776;9.204;2024-03-07T09:09:20;4.70;99.90
49503;DHT22;35409;48.776;9.204;2024-03-07T09:11:47;4.80;99.90
49503;DHT22;35409;48.776;9.204;2024-03-07T09:14:12;4.90;99.90
49503;DHT22;35409;48.776;9.204;2024-03-07T09:16:38;5.10;99.90
49503;DHT22;35409;48.776;9.204;2024-03-07T09:19:03;5.20;99.90
49503;DHT22;35409;48.776;9.204;2024-03-07T09:21:29;5.40;99.90
49503;DHT22;35409;48.776;9.204;2024-03-07T09:23:55;5.60;99.90
49503;DHT22;35409;48.776;9.204;2024-03-07T09:26:21;5.60;99.90
49503;DHT22;35409;48.776;9.204;2024-03-07T09:28:46;5.70;99.90
49503;DHT22;35409;48.776;9.204;2024-03-07T11:15:30;9.20;99.90
49503;DHT22;35409;48.776;9.204;2024-03-07T11:17:56;9.30;99.90
49503;DHT22;35409;48.776;9.204;2024-03-07T11:20:26;9.20;99.90
49503;DHT22;35409;48.776;9.204;2024-03-07T11:22:52;9.10;99.90
49503;DHT22;35409;48.776;9.204;2024-03-07T11:25:22;9.00;99.90
49503;DHT22;35409;48.776;9.204;2024-03-07T11:28:00;9.10;99.90
49503;DHT22;35409;48.776;9.204;2024-03-07T11:30:27;9.10;99.90
49503;DHT22;35409;48.776;9.204;2024-03-07T11:32:54;9.20;99.90
49503;DHT22;35409;48.776;9.204;2024-03-07T11:35:22;9.20;99.90
49503;DHT22;35409;48.776;9.204;2024-03-07T11:37:58;9.30;99.90
49503;DHT22;35409;48.776;9.204;2024-03-07T11:42:54;9.40;99.90
49503;DHT22;35409;48.776;9.204;2024-03-07T11:45:22;9.30;99.90
49503;DHT22;35409;48.776;9.204;2024-03-07T11:47:57;9.30;99.90
49503;DHT22;35409;48.776;9.204;2024-03-07T11:50:26;9.30;99.90
49503;DHT22;35409;48.776;9.204;2024-03-07T11:52:55;9.30;99.90
49503;DHT22;35409;48.776;9.204;2024-03-07T11:55:22;9.20;99.90
49503;DHT22;35409;48.776;9.204;2024-03-07T11:57:48;9.30;99.90
49503;DHT22;35409;48.776;9.204;2024-03-07T12:00:17;9.30;99.90
49503;DHT22;35409;48.776;9.204;2024-03-07T12:02:43;9.30;99.90
49503;DHT22;35409;48.776;9.204;2024-03-07T12:05:10;9.40;99.90
49503;DHT22;35409;48.776;9.204;2024-03-07T12:07:36;9.50;99.90
49503;DHT22;35409;48.776;9.204;2024-03-07T12:10:03;9.50;99.90
49503;DHT22;35409;48.776;9.204;2024-03-07T12:12:29;9.40;99.90
49503;DHT22;35409;48.776;9.204;2024-03-07T12:14:56;9.30;99.90
49503;DHT22;35409;48.776;9.204;2024-03-07T12:17:22;9.20;99.90
49503;DHT22;35409;48.776;9.204;2024-03-07T12:19:48;9.10;99.90
49503;DHT22;35409;48.776;9.204;2024-03-07T12:22:21;8.90;99.90
49503;DHT22;35409;48.776;9.204;2024-03-07T12:25:04;8.90;99.90
49503;DHT22;35409;48.776;9.204;2024-03-07T12:27:34;8.90;99.90
49503;DHT22;35409;48.776;9.204;2024-03-07T12:29:59;8.90;99.90
49503;DHT22;35409;48.776;9.204;2024-03-07T12:32:48;8.90;99.90
49503;DHT22;35409;48.776;9.204;2024-03-07T12:35:14;8.80;99.90
49503;DHT22;35409;48.776;9.204;2024-03-07T12:37:39;8.70;99.90
49503;DHT22;35409;48.776;9.204;2024-03-07T12:40:16;8.70;99.90
49503;DHT22;35409;48.776;9.204;2024-03-07T12:42:46;8.60;99.90
49503;DHT22;35409;48.776;9.204;2024-03-07T12:45:12;8.70;99.90
49503;DHT22;35409;48.776;9.204;2024-03-07T12:47:43;8.70;99.90
49503;DHT22;35409;48.776;9.204;2024-03-07T12:50:09;8.70;99.90
49503;DHT22;35409;48.776;9.204;2024-03-07T12:52:36;8.80;99.90
49503;DHT22;35409;48.776;9.204;2024-03-07T12:55:01;8.90;99.90
49503;DHT22;35409;48.776;9.204;2024-03-07T12:57:27;9.00;99.90
49503;DHT22;35409;48.776;9.204;2024-03-07T12:59:53;9.10;99.90
49503;DHT22;35409;48.776;9.204;2024-03-07T13:02:21;9.10;99.90
49503;DHT22;35409;48.776;9.204;2024-03-07T13:04:51;9.10;99.90
49503;DHT22;35409;48.776;9.204;2024-03-07T13:07:17;9.10;99.90
49503;DHT22;35409;48.776;9.204;2024-03-07T13:09:42;9.10;99.90
49503;DHT22;35409;48.776;9.204;2024-03-07T13:12:09;9.10;99.90
49503;DHT22;35409;48.776;9.204;2024-03-07T13:14:35;9.10;99.90
49503;DHT22;35409;48.776;9.204;2024-03-07T13:17:02;9.20;99.90
49503;DHT22;35409;48.776;9.204;2024-03-07T13:19:31;9.20;99.90
49503;DHT22;35409;48.776;9.204;2024-03-07T13:21:57;9.20;99.90
49503;DHT22;35409;48.776;9.204;2024-03-07T13:24:24;9.30;99.90
49503;DHT22;35409;48.776;9.204;2024-03-07T13:26:49;9.20;99.90
49503;DHT22;35409;48.776;9.204;2024-03-07T13:29:16;9.20;99.90
49503;DHT22;35409;48.776;9.204;2024-03-07T13:31:43;9.20;99.90
49503;DHT22;35409;48.776;9.204;2024-03-07T13:34:10;9.10;99.90
49503;DHT22;35409;48.776;9.204;2024-03-07T13:36:43;9.10;99.90
49503;DHT22;35409;48.776;9.204;2024-03-07T13:39:09;8.90;99.90
49503;DHT22;35409;48.776;9.204;2024-03-07T13:41:42;8.80;99.90
49503;DHT22;35409;48.776;9.204;2024-03-07T13:44:08;8.70;99.90
49503;DHT22;35409;48.776;9.204;2024-03-07T13:46:34;8.60;99.90
49503;DHT22;35409;48.776;9.204;2024-03-07T13:49:00;8.60;99.90
49503;DHT22;35409;48.776;9.204;2024-03-07T13:51:42;8.60;99.90
49503;DHT22;35409;48.776;9.204;2024-03-07T13:54:16;8.50;99.90
49503;DHT22;35409;48.776;9.204;2024-03-07T13:57:29;8.40;99.90
49503;DHT22;35409;48.776;9.204;2024-03-07T14:14:49;8.50;99.90
49503;DHT22;35409;48.776;9.204;2024-03-07T14:31:07;8.90;99.90
49503;DHT22;35409;48.776;9.204;2024-03-07T14:36:40;9.00;99.90
49503;DHT22;35409;48.776;9.204;2024-03-07T14:39:07;9.10;99.90
49503;DHT22;35409;48.776;9.204;2024-03-07T14:41:51;9.10;99.90
49503;DHT22;35409;48.776;9.204;2024-03-07T14:44:18;9.10;99.90
49503;DHT22;35409;48.776;9.204;2024-03-07T14:46:44;9.10;99.90
49503;DHT22;35409;48.776;9.204;2024-03-07T14:49:14;9.00;99.90
49503;DHT22;35409;48.776;9.204;2024-03-07T14:51:41;9.00;99.90
49503;DHT22;35409;48.776;9.204;2024-03-07T14:54:07;9.10;99.90
49503;DHT22;35409;48.776;9.204;2024-03-07T14:56:33;9.10;99.90
49503;DHT22;35409;48.776;9.204;2024-03-07T14:58:59;9.20;99.90
49503;DHT22;35409;48.776;9.204;2024-03-07T15:01:26;9.30;99.90
49503;DHT22;35409;48.776;9.204;2024-03-07T15:03:53;9.30;99.90
49503;DHT22;35409;48.776;9.204;2024-03-07T15:06:18;9.40;99.90
49503;DHT22;35409;48.776;9.204;2024-03-07T15:08:46;9.40;99.90
49503;DHT22;35409;48.776;9.204;2024-03-07T15:11:33;9.40;99.90
49503;DHT22;35409;48.776;9.204;2024-03-07T15:14:00;9.40;99.90
49503;DHT22;35409;48.776;9.204;2024-03-07T15:16:27;9.30;99.90
49503;DHT22;35409;48.776;9.204;2024-03-07T15:18:54;9.20;99.90
49503;DHT22;35409;48.776;9.204;2024-03-07T15:21:20;9.10;99.90
49503;DHT22;35409;48.776;9.204;2024-03-07T15:23:46;9.00;99.90
49503;DHT22;35409;48.776;9.204;2024-03-07T15:26:13;8.80;99.90
49503;DHT22;35409;48.776;9.204;2024-03-07T15:28:38;8.80;99.90
49503;DHT22;35409;48.776;9.204;2024-03-07T15:31:04;8.80;99.90
49503;DHT22;35409;48.776;9.204;2024-03-07T15:33:35;8.80;99.90
49503;DHT22;35409;48.776;9.204;2024-03-07T15:36:00;8.80;99.90
49503;DHT22;35409;48.776;9.204;2024-03-07T15:38:28;8.80;99.90
49503;DHT22;35409;48.776;9.204;2024-03-07T15:41:02;8.80;99.90
49503;DHT22;35409;48.776;9.204;2024-03-07T15:43:28;8.90;99.90
49503;DHT22;35409;48.776;9.204;2024-03-07T15:45:54;9.00;99.90
49503;DHT22;35409;48.776;9.204;2024-03-07T15:48:22;9.00;99.90
49503;DHT22;35409;48.776;9.204;2024-03-07T15:50:50;9.00;99.90
49503;DHT22;35409;48.776;9.204;2024-03-07T15:53:17;9.10;99.90
49503;DHT22;35409;48.776;9.204;2024-03-07T15:55:43;9.20;99.90
49503;DHT22;35409;48.776;9.204;2024-03-07T15:58:09;9.30;99.90
49503;DHT22;35409;48.776;9.204;2024-03-07T16:00:36;9.30;99.90
49503;DHT22;35409;48.776;9.204;2024-03-07T16:03:07;9.20;99.90
49503;DHT22;35409;48.776;9.204;2024-03-07T16:05:36;9.00;99.90
49503;DHT22;35409;48.776;9.204;2024-03-07T16:08:04;8.90;99.90
49503;DHT22;35409;48.776;9.204;2024-03-07T16:10:32;8.70;99.90
49503;DHT22;35409;48.776;9.204;2024-03-07T16:13:04;8.60;99.90
49503;DHT22;35409;48.776;9.204;2024-03-07T16:15:37;8.40;99.90
49503;DHT22;35409;48.776;9.204;2024-03-07T16:18:03;8.30;99.90
49503;DHT22;35409;48.776;9.204;2024-03-07T23:17:01;2.90;99.90
49503;DHT22;35409;48.776;9.204;2024-03-07T23:19:26;2.90;99.90
49503;DHT22;35409;48.776;9.204;2024-03-07T23:21:52;2.80;99.90
49503;DHT22;35409;48.776;9.204;2024-03-07T23:24:19;2.90;99.90
49503;DHT22;35409;48.776;9.204;2024-03-07T23:26:44;2.90;99.90
49503;DHT22;35409;48.776;9.204;2024-03-07T23:29:17;2.90;99.90
49503;DHT22;35409;48.776;9.204;2024-03-07T23:31:43;2.90;99.90
49503;DHT22;35409;48.776;9.204;2024-03-07T23:34:08;2.80;99.90
49503;DHT22;35409;48.776;9.204;2024-03-07T23:36:37;2.80;99.90
49503;DHT22;35409;48.776;9.204;2024-03-07T23:39:03;2.80;99.90
49503;DHT22;35409;48.776;9.204;2024-03-07T23:41:30;2.80;99.90
49503;DHT22;35409;48.776;9.204;2024-03-07T23:43:56;2.70;99.90
49503;DHT22;35409;48.776;9.204;2024-03-07T23:46:22;2.60;99.90
49503;DHT22;35409;48.776;9.204;2024-03-07T23:48:47;2.60;99.90
49503;DHT22;35409;48.776;9.204;2024-03-07T23:51:17;2.50;99.90
49503;DHT22;35409;48.776;9.204;2024-03-07T23:53:43;2.40;99.90
49503;DHT22;35409;48.776;9.204;2024-03-07T23:56:10;2.30;99.90
49503;DHT22;35409;48.776;9.204;2024-03-07T23:58:35;2.30;99.90
